createdAt,value
2019-01-20T00:01:48.041Z,18.37
2019-01-20T00:03:49.406Z,20.30
2019-01-20T00:05:50.815Z,17.92
2019-01-20T00:07:52.195Z,17.70
2019-01-20T00:09:53.584Z,19.32
2019-01-20T00:11:55.008Z,19.80
2019-01-20T00:13:56.383Z,18.02
2019-01-20T00:15:57.874Z,18.90
2019-01-20T00:17:59.708Z,17.65
2019-01-20T00:20:01.099Z,19.77
2019-01-20T00:22:03.774Z,20.23
2019-01-20T00:24:05.294Z,19.40
2019-01-20T00:26:06.667Z,17.32
2019-01-20T00:28:08.054Z,18.48
2019-01-20T00:30:13.686Z,17.20
2019-01-20T00:32:15.126Z,17.92
2019-01-20T00:34:16.613Z,17.27
2019-01-20T00:36:18.626Z,18.23
2019-01-20T00:38:20.056Z,18.05
2019-01-20T00:40:21.630Z,17.00
2019-01-20T00:42:23.005Z,16.32
2019-01-20T00:44:24.424Z,18.12
2019-01-20T00:46:25.799Z,20.05
2019-01-20T00:48:27.229Z,20.62
2019-01-20T00:50:28.612Z,18.40
2019-01-20T00:52:30.004Z,20.82
2019-01-20T00:54:31.430Z,18.55
2019-01-20T00:56:32.802Z,19.52
2019-01-20T00:58:34.181Z,20.75
2019-01-20T01:00:35.597Z,20.48
2019-01-20T01:02:37.081Z,19.23
2019-01-20T01:04:38.455Z,20.48
2019-01-20T01:06:39.990Z,18.07
2019-01-20T01:08:41.476Z,19.73
2019-01-20T01:10:42.857Z,18.15
2019-01-20T01:12:45.112Z,19.20
2019-01-20T01:14:46.480Z,19.98
2019-01-20T01:16:47.841Z,17.48
2019-01-20T01:18:49.555Z,18.52
2019-01-20T01:20:50.935Z,19.37
2019-01-20T01:22:52.305Z,19.27
2019-01-20T01:24:53.928Z,20.10
2019-01-20T01:26:55.343Z,17.45
2019-01-20T01:28:56.718Z,19.15
2019-01-20T01:30:58.325Z,19.15
2019-01-20T01:32:59.718Z,19.65
2019-01-20T01:35:01.247Z,20.10
2019-01-20T01:37:03.195Z,21.37
2019-01-20T01:39:06.283Z,19.07
2019-01-20T01:41:07.659Z,20.92
2019-01-20T01:43:09.092Z,20.30
2019-01-20T01:45:14.161Z,20.35
2019-01-20T01:47:15.531Z,20.45
2019-01-20T01:49:16.954Z,19.10
2019-01-20T01:51:18.327Z,20.20
2019-01-20T01:53:19.710Z,20.95
2019-01-20T01:55:21.141Z,20.70
2019-01-20T01:57:22.529Z,21.62
2019-01-20T01:59:23.904Z,22.58
2019-01-20T02:01:25.325Z,20.92
2019-01-20T02:03:27.024Z,20.90
2019-01-20T02:05:28.412Z,21.45
2019-01-20T02:07:29.779Z,20.50
2019-01-20T02:09:31.189Z,19.80
2019-01-20T02:11:32.578Z,22.45
2019-01-20T02:13:33.952Z,19.32
2019-01-20T02:15:35.385Z,20.45
2019-01-20T02:17:36.821Z,22.65
2019-01-20T02:19:38.184Z,25.85
2019-01-20T02:21:39.599Z,23.80
2019-01-20T02:23:40.981Z,25.00
2019-01-20T02:25:42.437Z,23.57
2019-01-20T02:27:43.798Z,22.10
2019-01-20T02:29:45.237Z,22.30
2019-01-20T02:31:46.602Z,24.30
2019-01-20T02:33:47.975Z,23.87
2019-01-20T02:35:49.380Z,23.75
2019-01-20T02:37:50.755Z,24.63
2019-01-20T02:39:52.135Z,23.40
2019-01-20T02:41:55.328Z,21.30
2019-01-20T02:43:56.841Z,24.77
2019-01-20T02:45:58.206Z,20.80
2019-01-20T02:47:59.637Z,20.23
2019-01-20T02:50:01.178Z,22.15
2019-01-20T02:52:02.755Z,22.32
2019-01-20T02:54:04.119Z,21.00
2019-01-20T02:56:05.553Z,21.85
2019-01-20T02:58:06.937Z,20.75
2019-01-20T03:00:16.341Z,21.23
2019-01-20T03:02:17.844Z,22.48
2019-01-20T03:04:19.200Z,22.27
2019-01-20T03:06:20.551Z,22.02
2019-01-20T03:08:21.981Z,21.02
2019-01-20T03:10:23.340Z,22.80
2019-01-20T03:12:24.696Z,25.90
2019-01-20T03:14:26.278Z,25.80
2019-01-20T03:16:27.646Z,24.72
2019-01-20T03:18:29.030Z,26.60
2019-01-20T03:20:30.446Z,23.05
2019-01-20T03:22:31.855Z,24.37
2019-01-20T03:24:33.284Z,24.67
2019-01-20T03:26:34.638Z,24.92
2019-01-20T03:28:35.987Z,23.85
2019-01-20T03:30:37.409Z,26.35
2019-01-20T03:32:38.767Z,26.02
2019-01-20T03:34:40.129Z,25.72
2019-01-20T03:36:41.539Z,24.07
2019-01-20T03:38:42.910Z,24.80
2019-01-20T03:40:44.261Z,22.73
2019-01-20T03:42:46.068Z,23.92
2019-01-20T03:44:47.414Z,24.72
2019-01-20T03:46:48.780Z,24.50
2019-01-20T03:48:50.206Z,23.27
2019-01-20T03:50:51.551Z,24.02
2019-01-20T03:52:52.922Z,23.30
2019-01-20T03:54:54.348Z,22.35
2019-01-20T03:56:55.692Z,21.85
2019-01-20T03:58:57.051Z,20.85
2019-01-20T04:00:58.748Z,22.07
2019-01-20T04:03:01.129Z,24.43
2019-01-20T04:05:05.523Z,23.15
2019-01-20T04:07:06.942Z,23.27
2019-01-20T04:09:08.539Z,21.82
2019-01-20T04:11:09.953Z,24.77
2019-01-20T04:13:11.464Z,24.65
2019-01-20T04:15:14.432Z,24.27
2019-01-20T04:17:15.807Z,24.85
2019-01-20T04:19:17.499Z,25.62
2019-01-20T04:21:18.886Z,25.20
2019-01-20T04:23:20.322Z,24.77
2019-01-20T04:25:21.879Z,24.72
2019-01-20T04:27:23.246Z,24.52
2019-01-20T04:29:24.641Z,23.80
2019-01-20T04:31:26.057Z,25.72
2019-01-20T04:33:27.847Z,25.60
2019-01-20T04:35:29.220Z,25.43
2019-01-20T04:37:30.582Z,25.52
2019-01-20T04:39:32.115Z,26.93
2019-01-20T04:41:33.602Z,25.50
2019-01-20T04:43:34.983Z,27.90
2019-01-20T04:45:36.776Z,25.92
2019-01-20T04:47:38.156Z,24.30
2019-01-20T04:49:39.539Z,26.52
2019-01-20T04:51:40.987Z,25.15
2019-01-20T04:53:42.746Z,24.77
2019-01-20T04:55:44.152Z,23.77
2019-01-20T04:57:47.507Z,27.73
2019-01-20T04:59:48.979Z,24.87
2019-01-20T05:01:50.446Z,23.65
2019-01-20T05:03:51.887Z,25.82
2019-01-20T05:05:53.265Z,25.43
2019-01-20T05:07:54.749Z,26.07
2019-01-20T05:09:56.306Z,25.62
2019-01-20T05:11:57.691Z,24.67
2019-01-20T05:13:59.079Z,26.97
2019-01-20T05:16:00.513Z,25.45
2019-01-20T05:18:01.879Z,26.95
2019-01-20T05:20:07.165Z,25.30
2019-01-20T05:22:08.782Z,24.63
2019-01-20T05:24:10.173Z,24.15
2019-01-20T05:26:11.545Z,25.90
2019-01-20T05:28:12.972Z,24.55
2019-01-20T05:30:17.660Z,26.10
2019-01-20T05:32:19.029Z,23.20
2019-01-20T05:34:20.426Z,23.67
2019-01-20T05:36:21.819Z,23.75
2019-01-20T05:38:23.200Z,25.52
2019-01-20T05:40:24.625Z,25.75
2019-01-20T05:42:26.007Z,26.40
2019-01-20T05:44:27.396Z,27.67
2019-01-20T05:46:28.849Z,22.52
2019-01-20T05:48:30.233Z,21.17
2019-01-20T05:50:31.646Z,24.50
2019-01-20T05:52:33.030Z,21.85
2019-01-20T05:54:34.396Z,21.62
2019-01-20T05:56:36.025Z,21.80
2019-01-20T05:58:37.407Z,23.57
2019-01-20T06:00:38.796Z,27.10
2019-01-20T06:02:40.405Z,25.88
2019-01-20T06:04:41.779Z,26.77
2019-01-20T06:06:43.159Z,28.07
2019-01-20T06:08:44.569Z,26.85
2019-01-20T06:10:45.962Z,25.48
2019-01-20T06:12:53.961Z,24.90
2019-01-20T06:14:50.688Z,25.20
2019-01-20T06:16:52.071Z,25.70
2019-01-20T06:18:53.475Z,25.75
2019-01-20T06:20:54.894Z,27.25
2019-01-20T06:22:56.306Z,25.95
2019-01-20T06:24:57.687Z,27.65
2019-01-20T06:26:59.112Z,24.95
2019-01-20T06:29:00.490Z,24.18
2019-01-20T06:31:01.876Z,26.20
2019-01-20T06:33:03.466Z,27.22
2019-01-20T06:35:05.658Z,24.63
2019-01-20T06:37:07.043Z,30.40
2019-01-20T06:39:08.549Z,29.05
2019-01-20T06:41:09.923Z,38.55
2019-01-20T06:43:11.306Z,33.08
2019-01-20T06:45:13.919Z,26.60
2019-01-20T06:47:15.348Z,27.60
2019-01-20T06:49:16.846Z,29.57
2019-01-20T06:51:18.267Z,26.45
2019-01-20T06:53:19.654Z,24.90
2019-01-20T06:55:21.856Z,24.67
2019-01-20T06:57:23.426Z,20.95
2019-01-20T06:59:24.803Z,21.17
2019-01-20T07:01:26.192Z,21.68
2019-01-20T07:03:27.611Z,22.25
2019-01-20T07:05:29.008Z,22.30
2019-01-20T07:07:30.497Z,24.95
2019-01-20T07:09:31.895Z,25.57
2019-01-20T07:11:33.252Z,24.70
2019-01-20T07:13:34.666Z,22.67
2019-01-20T07:15:36.082Z,22.85
2019-01-20T07:17:37.464Z,20.02
2019-01-20T07:19:38.855Z,23.55
2019-01-20T07:21:40.248Z,21.87
2019-01-20T07:23:42.130Z,20.97
2019-01-20T07:25:43.562Z,24.60
2019-01-20T07:27:44.937Z,23.22
2019-01-20T07:29:46.324Z,25.77
2019-01-20T07:31:47.740Z,24.55
2019-01-20T07:33:49.229Z,24.65
2019-01-20T07:35:50.655Z,23.45
2019-01-20T07:37:52.129Z,21.52
2019-01-20T07:39:53.507Z,20.25
2019-01-20T07:41:54.903Z,23.40
2019-01-20T07:43:56.309Z,21.25
2019-01-20T07:45:57.698Z,21.35
2019-01-20T07:47:59.111Z,19.50
2019-01-20T07:50:00.710Z,20.55
2019-01-20T07:52:02.216Z,20.08
2019-01-20T07:54:03.589Z,21.95
2019-01-20T07:56:04.998Z,21.05
2019-01-20T07:58:06.370Z,23.62
2019-01-20T08:00:17.584Z,22.82
2019-01-20T08:02:18.976Z,22.17
2019-01-20T08:04:20.367Z,21.27
2019-01-20T08:06:21.774Z,22.55
2019-01-20T08:08:23.167Z,21.25
2019-01-20T08:10:26.667Z,23.57
2019-01-20T08:12:28.035Z,24.40
2019-01-20T08:14:29.433Z,23.10
2019-01-20T08:16:30.812Z,22.93
2019-01-20T08:18:32.203Z,22.65
2019-01-20T08:20:33.665Z,24.63
2019-01-20T08:22:35.052Z,23.35
2019-01-20T08:24:36.455Z,25.77
2019-01-20T08:26:38.434Z,25.20
2019-01-20T08:28:40.006Z,26.27
2019-01-20T08:30:41.414Z,28.77
2019-01-20T08:32:42.899Z,28.55
2019-01-20T08:34:44.555Z,28.62
2019-01-20T08:36:45.924Z,26.68
2019-01-20T08:38:47.323Z,28.45
2019-01-20T08:40:48.734Z,27.35
2019-01-20T08:42:50.125Z,27.77
2019-01-20T08:44:51.514Z,27.70
2019-01-20T08:46:53.902Z,26.93
2019-01-20T08:48:55.399Z,27.45
2019-01-20T08:50:56.876Z,32.17
2019-01-20T08:52:58.299Z,33.13
2019-01-20T08:54:59.744Z,33.10
2019-01-20T08:57:01.127Z,28.15
2019-01-20T08:59:02.568Z,31.35
2019-01-20T09:01:03.943Z,30.77
2019-01-20T09:03:05.322Z,31.30
2019-01-20T09:05:06.933Z,32.63
2019-01-20T09:07:08.314Z,28.85
2019-01-20T09:09:09.727Z,28.57
2019-01-20T09:11:11.140Z,30.90
2019-01-20T09:13:12.577Z,29.40
2019-01-20T09:15:13.974Z,29.32
2019-01-20T09:17:15.390Z,31.77
2019-01-20T09:19:16.777Z,30.75
2019-01-20T09:21:18.170Z,30.15
2019-01-20T09:23:19.544Z,28.77
2019-01-20T09:25:20.931Z,28.85
2019-01-20T09:27:22.360Z,31.42
2019-01-20T09:29:23.824Z,29.55
2019-01-20T09:31:25.199Z,28.55
2019-01-20T09:33:26.667Z,29.80
2019-01-20T09:35:28.099Z,31.62
2019-01-20T09:37:29.476Z,30.77
2019-01-20T09:39:31.108Z,30.52
2019-01-20T09:41:32.491Z,32.80
2019-01-20T09:43:33.919Z,29.07
2019-01-20T09:45:35.654Z,32.10
2019-01-20T09:47:37.124Z,29.02
2019-01-20T09:49:38.503Z,30.00
2019-01-20T09:51:40.130Z,28.83
2019-01-20T09:53:41.524Z,30.17
2019-01-20T09:55:42.904Z,29.10
2019-01-20T09:57:44.548Z,29.63
2019-01-20T09:59:45.931Z,28.98
2019-01-20T10:01:47.322Z,29.45
2019-01-20T10:03:48.761Z,29.00
2019-01-20T10:05:50.124Z,31.30
2019-01-20T10:07:52.223Z,30.92
2019-01-20T10:09:53.666Z,28.55
2019-01-20T10:11:55.063Z,28.67
2019-01-20T10:13:56.495Z,30.45
2019-01-20T10:15:57.872Z,29.63
2019-01-20T10:17:59.233Z,28.47
2019-01-20T10:20:00.663Z,28.95
2019-01-20T10:22:02.059Z,28.77
2019-01-20T10:24:03.593Z,32.17
2019-01-20T10:26:05.042Z,28.77
2019-01-20T10:28:07.116Z,28.95
2019-01-20T10:30:28.451Z,29.37
2019-01-20T10:32:29.919Z,26.93
2019-01-20T10:34:32.265Z,28.27
2019-01-20T10:36:33.693Z,27.90
2019-01-20T10:38:37.131Z,28.15
2019-01-20T10:40:38.566Z,28.17
2019-01-20T10:42:40.097Z,25.90
2019-01-20T10:44:41.486Z,29.37
2019-01-20T10:46:42.873Z,28.47
2019-01-20T10:48:44.383Z,28.05
2019-01-20T10:50:45.831Z,28.80
2019-01-20T10:52:47.292Z,29.37
2019-01-20T10:54:48.666Z,27.67
2019-01-20T10:56:50.297Z,28.15
2019-01-20T10:58:51.673Z,28.95
2019-01-20T11:00:53.058Z,30.97
2019-01-20T11:02:54.535Z,27.95
2019-01-20T11:04:57.375Z,26.57
2019-01-20T11:06:59.175Z,29.40
2019-01-20T11:09:00.633Z,27.00
2019-01-20T11:11:02.123Z,26.40
2019-01-20T11:13:03.894Z,27.45
2019-01-20T11:15:10.145Z,28.77
2019-01-20T11:17:11.534Z,28.17
2019-01-20T11:19:13.586Z,27.45
2019-01-20T11:21:14.982Z,27.82
2019-01-20T11:23:17.125Z,22.95
2019-01-20T11:25:23.519Z,25.40
2019-01-20T11:27:24.926Z,26.82
2019-01-20T11:29:26.610Z,25.35
2019-01-20T11:31:28.096Z,25.60
2019-01-20T11:33:29.537Z,24.20
2019-01-20T11:35:31.128Z,22.98
2019-01-20T11:37:32.483Z,25.00
2019-01-20T11:39:33.893Z,25.65
2019-01-20T11:41:35.326Z,26.20
2019-01-20T11:43:36.745Z,24.27
2019-01-20T11:45:38.167Z,25.52
2019-01-20T11:47:42.018Z,24.43
2019-01-20T11:49:43.091Z,26.82
2019-01-20T11:51:44.493Z,26.25
2019-01-20T11:53:46.967Z,26.00
2019-01-20T11:55:48.494Z,25.72
2019-01-20T11:57:50.341Z,25.05
2019-01-20T11:59:51.738Z,25.57
2019-01-20T12:01:53.142Z,24.85
2019-01-20T12:03:54.587Z,26.30
2019-01-20T12:05:55.975Z,26.45
2019-01-20T12:07:57.439Z,26.10
2019-01-20T12:09:58.819Z,25.88
2019-01-20T12:12:00.205Z,25.48
2019-01-20T12:14:01.741Z,24.75
2019-01-20T12:16:03.502Z,25.12
2019-01-20T12:18:04.993Z,23.63
2019-01-20T12:20:10.852Z,24.72
2019-01-20T12:22:12.295Z,24.12
2019-01-20T12:24:13.690Z,24.60
2019-01-20T12:26:15.072Z,24.40
2019-01-20T12:28:16.507Z,24.73
2019-01-20T12:30:25.986Z,23.43
2019-01-20T12:32:27.363Z,24.97
2019-01-20T12:34:28.792Z,27.47
2019-01-20T12:36:30.234Z,22.77
2019-01-20T12:38:31.677Z,24.77
2019-01-20T12:40:37.574Z,23.80
2019-01-20T12:42:39.016Z,23.98
2019-01-20T12:44:40.409Z,23.93
2019-01-20T12:46:41.785Z,24.57
2019-01-20T12:48:43.255Z,26.70
2019-01-20T12:50:44.658Z,22.93
2019-01-20T12:52:46.141Z,24.87
2019-01-20T12:54:47.796Z,21.87
2019-01-20T12:56:49.257Z,21.90
2019-01-20T12:58:50.635Z,22.57
2019-01-20T13:00:52.367Z,21.43
2019-01-20T13:02:53.852Z,22.50
2019-01-20T13:04:56.498Z,20.87
2019-01-20T13:06:57.978Z,19.23
2019-01-20T13:08:59.360Z,20.00
2019-01-20T13:11:00.748Z,18.93
2019-01-20T13:13:02.536Z,18.20
2019-01-20T13:15:09.303Z,18.50
2019-01-20T13:17:10.790Z,21.13
2019-01-20T13:19:12.237Z,18.73
2019-01-20T13:21:13.668Z,22.17
2019-01-20T13:23:15.037Z,19.70
2019-01-20T13:25:22.688Z,21.13
2019-01-20T13:27:24.139Z,22.00
2019-01-20T13:29:25.507Z,22.10
2019-01-20T13:31:26.915Z,18.60
2019-01-20T13:33:28.375Z,18.20
2019-01-20T13:35:29.772Z,21.40
2019-01-20T13:37:31.172Z,21.97
2019-01-20T13:39:32.615Z,20.83
2019-01-20T13:41:34.014Z,23.33
2019-01-20T13:43:35.422Z,20.37
2019-01-20T13:45:36.879Z,19.70
2019-01-20T13:47:38.368Z,18.50
2019-01-20T13:49:40.138Z,17.47
2019-01-20T13:51:41.802Z,17.20
2019-01-20T13:53:43.181Z,17.07
2019-01-20T13:55:44.555Z,17.17
2019-01-20T13:57:46.227Z,17.20
2019-01-20T13:59:47.611Z,15.83
2019-01-20T14:01:49.009Z,16.70
2019-01-20T14:03:50.446Z,18.20
2019-01-20T14:05:52.246Z,18.63
2019-01-20T14:07:53.730Z,20.17
2019-01-20T14:09:55.177Z,18.97
2019-01-20T14:11:56.564Z,18.03
2019-01-20T14:13:57.987Z,17.97
2019-01-20T14:15:59.382Z,18.30
2019-01-20T14:18:00.760Z,19.17
2019-01-20T14:20:06.932Z,18.87
2019-01-20T14:22:08.303Z,21.00
2019-01-20T14:24:09.683Z,20.43
2019-01-20T14:26:11.138Z,19.50
2019-01-20T14:28:12.528Z,20.75
2019-01-20T14:30:18.665Z,20.12
2019-01-20T14:32:20.053Z,18.03
2019-01-20T14:34:21.423Z,20.73
2019-01-20T14:36:22.875Z,19.45
2019-01-20T14:38:24.291Z,18.47
2019-01-20T14:40:25.684Z,19.57
2019-01-20T14:42:27.089Z,19.00
2019-01-20T14:44:28.805Z,17.95
2019-01-20T14:46:30.310Z,18.50
2019-01-20T14:48:32.209Z,18.07
2019-01-20T14:50:33.716Z,17.30
2019-01-20T14:52:35.108Z,17.60
2019-01-20T14:54:36.497Z,17.53
2019-01-20T14:56:38.421Z,18.93
2019-01-20T14:58:39.881Z,18.33
2019-01-20T15:00:41.270Z,17.85
2019-01-20T15:02:42.736Z,17.67
2019-01-20T15:04:44.144Z,18.75
2019-01-20T15:06:45.544Z,17.85
2019-01-20T15:08:47.138Z,18.02
2019-01-20T15:10:48.539Z,16.52
2019-01-20T15:12:50.310Z,16.35
2019-01-20T15:14:51.998Z,17.82
2019-01-20T15:16:53.403Z,18.25
2019-01-20T15:18:54.831Z,18.35
2019-01-20T15:20:56.328Z,16.12
2019-01-20T15:22:57.705Z,19.73
2019-01-20T15:24:59.089Z,18.45
2019-01-20T15:27:00.533Z,19.60
2019-01-20T15:29:01.933Z,19.70
2019-01-20T15:31:03.377Z,17.55
2019-01-20T15:33:05.170Z,17.32
2019-01-20T15:35:06.731Z,20.68
2019-01-20T15:37:08.592Z,19.25
2019-01-20T15:39:10.408Z,17.50
2019-01-20T15:41:11.905Z,19.70
2019-01-20T15:43:13.347Z,22.40
2019-01-20T15:45:18.848Z,19.27
2019-01-20T15:47:20.240Z,18.85
2019-01-20T15:49:21.677Z,19.57
2019-01-20T15:51:23.118Z,18.77
2019-01-20T15:53:24.543Z,18.55
2019-01-20T15:55:25.938Z,18.75
2019-01-20T15:57:28.208Z,20.10
2019-01-20T15:59:29.656Z,19.62
2019-01-20T16:01:31.044Z,29.25
2019-01-20T16:03:32.491Z,24.05
2019-01-20T16:05:33.872Z,20.30
2019-01-20T16:07:35.263Z,19.70
2019-01-20T16:09:36.719Z,22.10
2019-01-20T16:11:38.110Z,21.15
2019-01-20T16:13:39.474Z,20.35
2019-01-20T16:15:41.073Z,19.57
2019-01-20T16:17:43.462Z,19.98
2019-01-20T16:19:44.851Z,18.27
2019-01-20T16:21:46.303Z,21.27
2019-01-20T16:23:47.694Z,19.48
2019-01-20T16:25:49.088Z,20.08
2019-01-20T16:27:50.805Z,18.37
2019-01-20T16:29:52.192Z,17.12
2019-01-20T16:31:53.578Z,18.30
2019-01-20T16:33:55.041Z,20.48
2019-01-20T16:35:56.525Z,22.35
2019-01-20T16:37:59.148Z,73.00
2019-01-20T16:40:00.599Z,29.72
2019-01-20T16:42:01.956Z,32.93
2019-01-20T16:44:03.650Z,35.35
2019-01-20T16:46:05.081Z,39.45
2019-01-20T16:48:06.871Z,53.65
2019-01-20T16:50:13.685Z,87.15
2019-01-20T16:52:15.137Z,63.87
2019-01-20T16:54:16.535Z,60.48
2019-01-20T16:56:17.958Z,40.45
2019-01-20T16:58:19.656Z,28.23
2019-01-20T17:00:28.419Z,30.90
2019-01-20T17:02:29.803Z,38.73
2019-01-20T17:04:31.244Z,39.05
2019-01-20T17:06:32.624Z,37.63
2019-01-20T17:08:34.001Z,29.48
2019-01-20T17:10:37.964Z,30.08
2019-01-20T17:12:39.330Z,31.60
2019-01-20T17:14:40.717Z,30.95
2019-01-20T17:16:42.342Z,31.93
2019-01-20T17:18:43.769Z,31.65
2019-01-20T17:20:45.848Z,29.48
2019-01-20T17:22:47.634Z,32.80
2019-01-20T17:24:49.017Z,33.88
2019-01-20T17:26:50.465Z,32.00
2019-01-20T17:28:51.859Z,31.77
2019-01-20T17:30:53.250Z,44.45
2019-01-20T17:32:55.208Z,38.95
2019-01-20T17:34:56.601Z,32.03
2019-01-20T17:36:57.989Z,30.35
2019-01-20T17:38:59.422Z,32.50
2019-01-20T17:41:00.904Z,29.75
2019-01-20T17:43:03.689Z,28.50
2019-01-20T17:45:10.855Z,32.88
2019-01-20T17:47:12.223Z,40.90
2019-01-20T17:49:13.613Z,29.32
2019-01-20T17:51:15.048Z,32.93
2019-01-20T17:53:16.427Z,29.40
2019-01-20T17:55:17.901Z,35.70
2019-01-20T17:57:19.336Z,33.70
2019-01-20T17:59:20.723Z,36.65
2019-01-20T18:01:22.161Z,38.15
2019-01-20T18:03:23.552Z,41.00
2019-01-20T18:05:25.243Z,32.65
2019-01-20T18:07:26.690Z,30.92
2019-01-20T18:09:28.081Z,39.23
2019-01-20T18:11:29.462Z,31.93
2019-01-20T18:13:30.906Z,30.25
2019-01-20T18:15:32.302Z,36.45
2019-01-20T18:17:33.802Z,36.50
2019-01-20T18:19:35.240Z,30.57
2019-01-20T18:21:36.624Z,30.70
2019-01-20T18:23:38.060Z,28.30
2019-01-20T18:25:39.435Z,31.57
2019-01-20T18:27:40.927Z,29.48
2019-01-20T18:29:42.356Z,32.80
2019-01-20T18:31:43.753Z,30.52
2019-01-20T18:33:45.142Z,32.42
2019-01-20T18:35:46.585Z,29.02
2019-01-20T18:37:48.068Z,30.20
2019-01-20T18:39:49.439Z,31.10
2019-01-20T18:41:50.869Z,28.83
2019-01-20T18:43:52.243Z,28.20
2019-01-20T18:45:53.783Z,28.50
2019-01-20T18:47:55.356Z,29.75
2019-01-20T18:49:56.751Z,28.12
2019-01-20T18:51:58.195Z,30.25
2019-01-20T18:53:59.657Z,29.60
2019-01-20T18:56:01.040Z,34.08
2019-01-20T18:58:04.196Z,30.65
2019-01-20T19:00:11.328Z,32.65
2019-01-20T19:02:12.697Z,28.83
2019-01-20T19:04:15.108Z,29.82
2019-01-20T19:06:16.569Z,33.40
2019-01-20T19:08:17.938Z,33.67
2019-01-20T19:10:21.112Z,35.45
2019-01-20T19:12:22.536Z,31.73
2019-01-20T19:14:23.927Z,34.70
2019-01-20T19:16:25.305Z,34.10
2019-01-20T19:18:26.742Z,32.78
2019-01-20T19:20:28.108Z,35.20
2019-01-20T19:22:29.492Z,32.75
2019-01-20T19:24:30.929Z,33.10
2019-01-20T19:26:32.315Z,32.78
2019-01-20T19:28:33.700Z,33.35
2019-01-20T19:30:35.162Z,32.70
2019-01-20T19:32:36.639Z,31.90
2019-01-20T19:34:38.014Z,35.20
2019-01-20T19:36:39.467Z,28.90
2019-01-20T19:38:40.863Z,33.05
2019-01-20T19:40:42.241Z,32.90
2019-01-20T19:42:43.665Z,31.17
2019-01-20T19:44:45.060Z,33.75
2019-01-20T19:46:46.500Z,31.52
2019-01-20T19:48:47.877Z,31.90
2019-01-20T19:50:49.250Z,29.85
2019-01-20T19:52:50.688Z,32.13
2019-01-20T19:54:52.067Z,34.27
2019-01-20T19:56:53.457Z,32.93
2019-01-20T19:58:54.936Z,35.52
2019-01-20T20:00:56.323Z,31.95
2019-01-20T20:02:57.748Z,33.05
2019-01-20T20:04:59.193Z,32.93
2019-01-20T20:07:00.566Z,30.62
2019-01-20T20:09:04.672Z,33.10
2019-01-20T20:11:06.132Z,33.00
2019-01-20T20:13:07.510Z,32.80
2019-01-20T20:15:14.619Z,34.33
2019-01-20T20:17:16.072Z,39.90
2019-01-20T20:19:17.445Z,33.48
2019-01-20T20:21:18.816Z,32.83
2019-01-20T20:23:20.258Z,35.55
2019-01-20T20:25:24.139Z,33.58
2019-01-20T20:27:25.525Z,32.03
2019-01-20T20:29:26.973Z,29.95
2019-01-20T20:31:28.403Z,33.18
2019-01-20T20:33:29.782Z,32.58
2019-01-20T20:35:31.162Z,33.75
2019-01-20T20:37:32.774Z,35.10
2019-01-20T20:39:34.155Z,32.38
2019-01-20T20:41:35.537Z,32.13
2019-01-20T20:43:36.959Z,35.00
2019-01-20T20:45:38.323Z,35.43
2019-01-20T20:47:39.719Z,33.42
2019-01-20T20:49:41.169Z,32.35
2019-01-20T20:51:42.566Z,31.75
2019-01-20T20:53:43.999Z,35.00
2019-01-20T20:55:45.469Z,38.13
2019-01-20T20:57:47.149Z,41.83
2019-01-20T20:59:48.514Z,33.80
2019-01-20T21:01:49.961Z,36.83
2019-01-20T21:03:51.439Z,36.15
2019-01-20T21:05:52.854Z,33.73
2019-01-20T21:07:54.438Z,33.70
2019-01-20T21:09:56.503Z,39.18
2019-01-20T21:11:58.111Z,32.40
2019-01-20T21:13:59.567Z,35.73
2019-01-20T21:16:01.033Z,35.35
2019-01-20T21:18:02.693Z,35.50
2019-01-20T21:20:12.042Z,33.23
2019-01-20T21:22:13.421Z,33.63
2019-01-20T21:24:14.791Z,31.00
2019-01-20T21:26:16.238Z,31.57
2019-01-20T21:28:17.604Z,34.60
2019-01-20T21:30:27.030Z,31.82
2019-01-20T21:32:28.491Z,33.70
2019-01-20T21:34:29.880Z,33.00
2019-01-20T21:36:31.251Z,34.30
2019-01-20T21:38:32.678Z,30.95
2019-01-20T21:40:34.062Z,34.85
2019-01-20T21:42:35.415Z,33.70
2019-01-20T21:44:36.845Z,29.30
2019-01-20T21:46:45.175Z,28.00
2019-01-20T21:48:41.531Z,32.45
2019-01-20T21:50:42.922Z,32.75
2019-01-20T21:52:44.397Z,28.47
2019-01-20T21:54:45.855Z,30.17
2019-01-20T21:56:47.237Z,27.95
2019-01-20T21:58:48.622Z,30.17
2019-01-20T22:00:50.059Z,28.50
2019-01-20T22:02:51.421Z,25.08
2019-01-20T22:04:52.852Z,29.32
2019-01-20T22:06:54.270Z,30.05
2019-01-20T22:08:55.654Z,23.60
2019-01-20T22:10:57.080Z,23.42
2019-01-20T22:12:58.467Z,23.05
2019-01-20T22:14:59.843Z,28.25
2019-01-20T22:17:01.260Z,27.95
2019-01-20T22:19:02.725Z,29.20
2019-01-20T22:21:04.097Z,28.62
2019-01-20T22:23:05.522Z,27.45
2019-01-20T22:25:09.381Z,24.00
2019-01-20T22:27:10.744Z,24.37
2019-01-20T22:29:12.159Z,24.05
2019-01-20T22:31:13.519Z,27.48
2019-01-20T22:33:14.880Z,23.45
2019-01-20T22:35:16.400Z,22.27
2019-01-20T22:37:17.910Z,26.50
2019-01-20T22:39:19.295Z,23.60
2019-01-20T22:41:20.699Z,23.92
2019-01-20T22:43:22.135Z,24.80
2019-01-20T22:45:24.607Z,25.50
2019-01-20T22:47:25.963Z,25.65
2019-01-20T22:49:27.371Z,23.40
2019-01-20T22:51:28.746Z,24.80
2019-01-20T22:53:30.103Z,24.37
2019-01-20T22:55:31.518Z,24.60
2019-01-20T22:57:32.883Z,22.10
2019-01-20T22:59:34.245Z,23.90
2019-01-20T23:01:35.657Z,22.37
2019-01-20T23:03:37.039Z,25.35
2019-01-20T23:05:38.396Z,24.12
2019-01-20T23:07:39.818Z,23.52
2019-01-20T23:09:41.178Z,24.47
2019-01-20T23:11:42.541Z,25.48
2019-01-20T23:13:43.981Z,26.60
2019-01-20T23:15:45.343Z,26.52
2019-01-20T23:17:46.791Z,26.85
2019-01-20T23:19:48.150Z,22.95
2019-01-20T23:21:49.511Z,23.80
2019-01-20T23:23:52.519Z,28.07
2019-01-20T23:25:53.998Z,25.43
2019-01-20T23:27:55.366Z,21.20
2019-01-20T23:29:56.774Z,23.02
2019-01-20T23:31:58.153Z,22.87
2019-01-20T23:33:59.541Z,22.50
2019-01-20T23:36:01.086Z,21.93
2019-01-20T23:38:03.118Z,22.50
2019-01-20T23:40:09.409Z,21.27
2019-01-20T23:42:10.833Z,22.82
2019-01-20T23:44:12.261Z,22.15
2019-01-20T23:46:13.744Z,19.23
2019-01-20T23:48:15.153Z,20.25
2019-01-20T23:50:16.513Z,20.95
2019-01-20T23:52:17.922Z,22.20
2019-01-20T23:54:19.314Z,21.93
2019-01-20T23:56:20.709Z,20.05
2019-01-20T23:58:22.122Z,23.52
